| time (UTC) | temp F | wind direction | speed MPH | gust MPH | rain 1hr in | rain 24hr in | rain mn in | humidity % | barometer mb |
| 20260508030005 | 47 | 228 | 0.0 | 8.0 | 0.00 | 0.03 | 0.03 | 91 | 1010.1 |
| 20260508024507 | 47 | 200 | 3.0 | 6.0 | 0.00 | 0.03 | 0.03 | 91 | 1010.0 |
| 20260508023004 | 47 | 208 | 2.0 | 6.0 | 0.00 | 0.03 | 0.03 | 90 | 1010.0 |
| 20260508021502 | 48 | 188 | 4.0 | 5.0 | 0.00 | 0.03 | 0.03 | 91 | 1009.8 |
| 20260508020002 | 48 | 204 | 3.0 | 6.0 | 0.00 | 0.03 | 0.03 | 91 | 1009.7 |
| 20260508014502 | 47 | 232 | 2.0 | 6.0 | 0.00 | 0.03 | 0.03 | 90 | 1009.2 |
| 20260508013001 | 47 | 226 | 3.0 | 8.0 | 0.00 | 0.03 | 0.03 | 91 | 1009.0 |
| 20260508011616 | 46 | 227 | 1.0 | 3.0 | 0.00 | 0.03 | 0.03 | 90 | 1009.0 |
| 20260508010104 | 46 | 230 | 0.0 | 3.0 | 0.00 | 0.03 | 0.03 | 89 | 1008.8 |
| 20260508004559 | 46 | 229 | 0.0 | 5.0 | 0.00 | 0.03 | 0.03 | 88 | 1008.8 |
| 20260508003059 | 46 | 227 | 4.0 | 8.0 | 0.00 | 0.03 | 0.03 | 88 | 1008.8 |
| 20260508001557 | 46 | 200 | 4.0 | 7.0 | 0.00 | 0.03 | 0.03 | 86 | 1008.8 |
| 20260508000119 | 47 | 182 | 4.0 | 6.0 | 0.00 | 0.03 | 0.03 | 84 | 1008.9 |
| 20260507234557 | 47 | 171 | 4.0 | 6.0 | 0.00 | 0.03 | 0.03 | 83 | 1008.9 |
| 20260507233056 | 47 | 130 | 2.0 | 6.0 | 0.00 | 0.03 | 0.03 | 86 | 1009.1 |
| 20260507231604 | 47 | 146 | 4.0 | 15.0 | 0.00 | 0.03 | 0.03 | 85 | 1009.1 |
| 20260507230056 | 49 | 159 | 4.0 | 9.0 | 0.00 | 0.03 | 0.03 | 85 | 1009.3 |
| 20260507224555 | 49 | 225 | 2.0 | 14.0 | 0.00 | 0.03 | 0.03 | 86 | 1009.2 |
| 20260507223053 | 49 | 225 | 13.0 | 17.0 | 0.00 | 0.03 | 0.03 | 85 | 1008.8 |
| 20260507221559 | 49 | 211 | 10.0 | 15.0 | 0.00 | 0.03 | 0.03 | 87 | 1009.0 |
| 20260507220052 | 50 | 221 | 10.0 | 16.0 | 0.00 | 0.03 | 0.03 | 86 | 1009.0 |
| 20260507214551 | 50 | 245 | 7.0 | 13.0 | 0.00 | 0.03 | 0.03 | 85 | 1009.1 |
| 20260507213053 | 49 | 232 | 8.0 | 13.0 | 0.02 | 0.03 | 0.03 | 87 | 1008.9 |
| 20260507211558 | 49 | 219 | 8.0 | 11.0 | 0.02 | 0.03 | 0.03 | 89 | 1009.0 |
| 20260507210050 | 48 | 225 | 5.0 | 9.0 | 0.02 | 0.03 | 0.03 | 86 | 1009.1 |
| 20260507204546 | 47 | 184 | 3.0 | 10.0 | 0.03 | 0.03 | 0.03 | 88 | 1009.1 |
| 20260507203046 | 47 | 227 | 5.0 | 10.0 | 0.01 | 0.01 | 0.01 | 81 | 1010.0 |
| 20260507201542 | 47 | 192 | 7.0 | 11.0 | 0.01 | 0.01 | 0.01 | 80 | 1009.7 |
| 20260507200041 | 47 | 219 | 8.0 | 15.0 | 0.01 | 0.01 | 0.01 | 81 | 1010.3 |
| 20260507194540 | 47 | 213 | 9.0 | 13.0 | 0.00 | 0.00 | 0.00 | 79 | 1010.4 |
| 20260507193037 | 47 | 213 | 7.0 | 15.0 | 0.00 | 0.00 | 0.00 | 78 | 1010.5 |
| 20260507191533 | 46 | 227 | 8.0 | 14.0 | 0.00 | 0.00 | 0.00 | 79 | 1011.1 |
| 20260507190037 | 46 | 194 | 9.0 | 17.0 | 0.00 | 0.00 | 0.00 | 74 | 1010.9 |
| 20260507184531 | 46 | 175 | 10.0 | 18.0 | 0.00 | 0.00 | 0.00 | 76 | 1011.1 |
| 20260507183031 | 46 | 209 | 8.0 | 14.0 | 0.00 | 0.00 | 0.00 | 75 | 1011.2 |
| 20260507181527 | 46 | 184 | 9.0 | 14.0 | 0.00 | 0.00 | 0.00 | 74 | 1011.4 |
| 20260507180026 | 47 | 217 | 11.0 | 15.0 | 0.00 | 0.00 | 0.00 | 72 | 1011.7 |
| 20260507174542 | 47 | 165 | 8.0 | 14.0 | 0.00 | 0.00 | 0.00 | 73 | 1011.7 |
| 20260507173027 | 47 | 204 | 9.0 | 15.0 | 0.00 | 0.00 | 0.00 | 71 | 1012.0 |
| 20260507171530 | 47 | 180 | 9.0 | 15.0 | 0.00 | 0.00 | 0.00 | 69 | 1011.9 |
| 20260507170024 | 47 | 178 | 8.0 | 15.0 | 0.00 | 0.00 | 0.00 | 66 | 1012.2 |
| 20260507164519 | 47 | 175 | 11.0 | 14.0 | 0.00 | 0.00 | 0.00 | 66 | 1012.4 |
| 20260507163021 | 47 | 172 | 11.0 | 14.0 | 0.00 | 0.00 | 0.00 | 67 | 1012.4 |
| 20260507161520 | 51 | 195 | 4.0 | 12.0 | 0.00 | 0.00 | 0.00 | 61 | 1012.8 |
| 20260507160015 | 54 | 200 | 4.0 | 9.0 | 0.00 | 0.00 | 0.00 | 43 | 1012.8 |
| 20260507154512 | 54 | 221 | 1.0 | 8.0 | 0.00 | 0.00 | 0.00 | 42 | 1013.2 |
| 20260507153007 | 53 | 200 | 0.0 | 6.0 | 0.00 | 0.00 | 0.00 | 43 | 1013.3 |
| 20260507151502 | 52 | 296 | 1.0 | 6.0 | 0.00 | 0.00 | 0.00 | 46 | 1013.6 |
| 20260507150100 | 51 | 201 | 0.0 | 7.0 | 0.00 | 0.00 | 0.00 | 46 | 1013.9 |
| 20260507144559 | 51 | 124 | 0.0 | 4.0 | 0.00 | 0.00 | 0.00 | 47 | 1014.0 |
| 20260507143111 | 50 | 221 | 1.0 | 7.0 | 0.00 | 0.00 | 0.00 | 47 | 1014.1 |
| 20260507141602 | 49 | 334 | 2.0 | 8.0 | 0.00 | 0.00 | 0.00 | 50 | 1014.3 |
| 20260507140057 | 47 | 87 | 1.0 | 7.0 | 0.00 | 0.00 | 0.00 | 51 | 1014.3 |
| 20260507134546 | 47 | 5 | 0.0 | 9.0 | 0.00 | 0.00 | 0.00 | 52 | 1014.5 |
| 20260507133045 | 46 | 74 | 1.0 | 6.0 | 0.00 | 0.00 | 0.00 | 53 | 1014.7 |
| 20260507131609 | 47 | 18 | 1.0 | 6.0 | 0.00 | 0.00 | 0.00 | 55 | 1014.5 |
| 20260507130040 | 46 | 18 | 1.0 | 6.0 | 0.00 | 0.00 | 0.00 | 57 | 1014.6 |
| 20260507124540 | 45 | 275 | 0.0 | 10.0 | 0.00 | 0.00 | 0.00 | 60 | 1014.4 |
| 20260507123041 | 43 | 355 | 0.0 | 5.0 | 0.00 | 0.00 | 0.00 | 65 | 1014.3 |
| 20260507121529 | 42 | 339 | 2.0 | 5.0 | 0.00 | 0.00 | 0.00 | 67 | 1014.3 |
| 20260507120032 | 40 | 289 | 1.0 | 4.0 | 0.00 | 0.00 | 0.00 | 70 | 1014.2 |
| 20260507114528 | 39 | 329 | 0.0 | 2.0 | 0.00 | 0.00 | 0.00 | 74 | 1014.3 |
| 20260507113057 | 37 | 12 | 0.0 | 2.0 | 0.00 | 0.00 | 0.00 | 76 | 1014.0 |
| 20260507111532 | 36 | 12 | 0.0 | 3.0 | 0.00 | 0.00 | 0.00 | 80 | 1014.2 |
| 20260507110029 | 35 | 29 | 0.0 | 1.0 | 0.00 | 0.00 | 0.00 | 81 | 1014.0 |
| 20260507104526 | 35 | 29 | 0.0 | 0.0 | 0.00 | 0.00 | 0.00 | 81 | 1013.8 |
| 20260507103024 | 35 | 29 | 0.0 | 0.0 | 0.00 | 0.00 | 0.00 | 81 | 1013.9 |
| 20260507101525 | 35 | 29 | 0.0 | 0.0 | 0.00 | 0.00 | 0.00 | 82 | 1013.8 |
| 20260507100032 | 35 | 29 | 0.0 | 0.0 | 0.00 | 0.00 | 0.00 | 81 | 1013.9 |
| 20260507094521 | 35 | 29 | 0.0 | 0.0 | 0.00 | 0.00 | 0.00 | 79 | 1014.0 |
| 20260507093024 | 36 | 29 | 0.0 | 0.0 | 0.00 | 0.00 | 0.00 | 79 | 1014.0 |
| 20260507091521 | 36 | 29 | 0.0 | 0.0 | 0.00 | 0.00 | 0.00 | 79 | 1013.9 |
| 20260507090018 | 36 | 29 | 0.0 | 0.0 | 0.00 | 0.00 | 0.00 | 78 | 1013.9 |
| 20260507084538 | 36 | 29 | 0.0 | 1.0 | 0.00 | 0.00 | 0.00 | 78 | 1013.8 |
| 20260507083022 | 36 | 29 | 0.0 | 0.0 | 0.00 | 0.00 | 0.00 | 77 | 1013.9 |
| 20260507081514 | 37 | 29 | 0.0 | 0.0 | 0.00 | 0.00 | 0.00 | 77 | 1013.7 |
| 20260507080011 | 37 | 29 | 0.0 | 0.0 | 0.00 | 0.00 | 0.00 | 75 | 1014.0 |
| 20260507074510 | 37 | 29 | 0.0 | 0.0 | 0.00 | 0.00 | 0.00 | 75 | 1014.0 |
| 20260507073007 | 38 | 29 | 0.0 | 0.0 | 0.00 | 0.00 | 0.00 | 74 | 1014.1 |
| 20260507071507 | 38 | 29 | 0.0 | 0.0 | 0.00 | 0.00 | 0.00 | 74 | 1014.2 |
| 20260507070012 | 38 | 29 | 0.0 | 2.0 | 0.00 | 0.00 | 0.00 | 72 | 1014.2 |
| 20260507064503 | 39 | 29 | 0.0 | 1.0 | 0.00 | 0.00 | 0.00 | 72 | 1014.3 |
| 20260507063101 | 39 | 29 | 0.0 | 1.0 | 0.00 | 0.00 | 0.00 | 71 | 1014.4 |
| 20260507061558 | 39 | 29 | 0.0 | 0.0 | 0.00 | 0.00 | 0.00 | 70 | 1014.4 |
| 20260507060100 | 40 | 29 | 0.0 | 0.0 | 0.00 | 0.00 | 0.00 | 69 | 1014.3 |
| 20260507054554 | 40 | 29 | 0.0 | 1.0 | 0.00 | 0.00 | 0.00 | 69 | 1014.2 |
| 20260507053051 | 41 | 29 | 0.0 | 0.0 | 0.00 | 0.00 | 0.00 | 67 | 1014.3 |
| 20260507051548 | 41 | 29 | 0.0 | 2.0 | 0.00 | 0.00 | 0.00 | 65 | 1014.4 |
| 20260507050103 | 42 | 29 | 0.0 | 1.0 | 0.00 | 0.00 | 0.00 | 62 | 1014.4 |
| 20260507044552 | 43 | 29 | 0.0 | 1.0 | 0.00 | 0.00 | 0.00 | 60 | 1014.3 |
| 20260507043045 | 44 | 29 | 0.0 | 2.0 | 0.00 | 0.00 | 0.00 | 59 | 1014.3 |
| 20260507041545 | 44 | 36 | 0.0 | 2.0 | 0.00 | 0.00 | 0.00 | 56 | 1014.2 |
| 20260507040048 | 44 | 38 | 0.0 | 2.0 | 0.00 | 0.00 | 0.00 | 55 | 1014.4 |
| 20260507034544 | 45 | 5 | 0.0 | 5.0 | 0.00 | 0.00 | 0.00 | 55 | 1014.5 |
| 20260507033047 | 45 | 49 | 0.0 | 3.0 | 0.00 | 0.00 | 0.00 | 54 | 1014.4 |
| 20260507031542 | 46 | 53 | 0.0 | 3.0 | 0.00 | 0.00 | 0.00 | 53 | 1014.4 |